sensor_id;sensor_type;location;lat;lon;timestamp;P1;durP1;ratioP1;P2;durP2;ratioP2
28587;SDS011;15787;49.662;10.162;2024-03-17T00:00:03;7.80;;;5.15;;
28587;SDS011;15787;49.662;10.162;2024-03-17T00:02:35;8.32;;;4.82;;
28587;SDS011;15787;49.662;10.162;2024-03-17T00:05:10;9.63;;;5.25;;
28587;SDS011;15787;49.662;10.162;2024-03-17T00:07:41;9.57;;;4.93;;
28587;SDS011;15787;49.662;10.162;2024-03-17T00:10:13;7.60;;;4.57;;
28587;SDS011;15787;49.662;10.162;2024-03-17T00:12:46;8.45;;;4.55;;
28587;SDS011;15787;49.662;10.162;2024-03-17T00:15:19;7.55;;;4.68;;
28587;SDS011;15787;49.662;10.162;2024-03-17T00:17:51;7.40;;;4.20;;
28587;SDS011;15787;49.662;10.162;2024-03-17T00:20:22;6.90;;;4.50;;
28587;SDS011;15787;49.662;10.162;2024-03-17T00:22:56;9.30;;;4.38;;
28587;SDS011;15787;49.662;10.162;2024-03-17T00:25:28;12.00;;;5.22;;
28587;SDS011;15787;49.662;10.162;2024-03-17T00:28:00;8.05;;;5.00;;
28587;SDS011;15787;49.662;10.162;2024-03-17T00:30:32;8.13;;;4.57;;
28587;SDS011;15787;49.662;10.162;2024-03-17T00:33:04;9.20;;;4.45;;
28587;SDS011;15787;49.662;10.162;2024-03-17T00:35:35;9.25;;;4.57;;
28587;SDS011;15787;49.662;10.162;2024-03-17T00:38:08;6.68;;;4.15;;
28587;SDS011;15787;49.662;10.162;2024-03-17T00:40:41;6.53;;;4.20;;
28587;SDS011;15787;49.662;10.162;2024-03-17T00:43:13;7.30;;;4.30;;
28587;SDS011;15787;49.662;10.162;2024-03-17T00:45:45;5.78;;;3.85;;
28587;SDS011;15787;49.662;10.162;2024-03-17T00:48:23;7.38;;;4.25;;
28587;SDS011;15787;49.662;10.162;2024-03-17T00:50:54;6.50;;;4.07;;
28587;SDS011;15787;49.662;10.162;2024-03-17T00:53:27;8.82;;;4.00;;
28587;SDS011;15787;49.662;10.162;2024-03-17T00:55:58;7.60;;;4.07;;
28587;SDS011;15787;49.662;10.162;2024-03-17T00:58:31;6.78;;;4.13;;
28587;SDS011;15787;49.662;10.162;2024-03-17T01:01:04;8.07;;;4.40;;
28587;SDS011;15787;49.662;10.162;2024-03-17T01:03:36;5.72;;;4.00;;
28587;SDS011;15787;49.662;10.162;2024-03-17T01:06:07;7.00;;;4.50;;
28587;SDS011;15787;49.662;10.162;2024-03-17T01:08:39;6.13;;;3.95;;
28587;SDS011;15787;49.662;10.162;2024-03-17T01:11:14;7.30;;;4.18;;
28587;SDS011;15787;49.662;10.162;2024-03-17T01:13:47;6.63;;;4.22;;
28587;SDS011;15787;49.662;10.162;2024-03-17T01:16:20;6.35;;;4.22;;
28587;SDS011;15787;49.662;10.162;2024-03-17T01:18:53;5.88;;;3.97;;
28587;SDS011;15787;49.662;10.162;2024-03-17T01:21:24;9.35;;;4.10;;
28587;SDS011;15787;49.662;10.162;2024-03-17T01:23:56;6.88;;;4.20;;
28587;SDS011;15787;49.662;10.162;2024-03-17T01:26:30;8.60;;;5.68;;
28587;SDS011;15787;49.662;10.162;2024-03-17T01:29:02;11.43;;;4.40;;
28587;SDS011;15787;49.662;10.162;2024-03-17T01:31:35;7.70;;;4.57;;
28587;SDS011;15787;49.662;10.162;2024-03-17T01:34:07;8.38;;;4.40;;
28587;SDS011;15787;49.662;10.162;2024-03-17T01:36:38;7.03;;;4.18;;
28587;SDS011;15787;49.662;10.162;2024-03-17T01:39:10;7.15;;;4.10;;
28587;SDS011;15787;49.662;10.162;2024-03-17T01:41:41;10.35;;;4.78;;
28587;SDS011;15787;49.662;10.162;2024-03-17T01:44:21;8.52;;;4.28;;
28587;SDS011;15787;49.662;10.162;2024-03-17T01:46:55;7.43;;;4.10;;
28587;SDS011;15787;49.662;10.162;2024-03-17T01:49:27;7.13;;;4.82;;
28587;SDS011;15787;49.662;10.162;2024-03-17T01:51:59;8.38;;;5.28;;
28587;SDS011;15787;49.662;10.162;2024-03-17T01:54:31;10.93;;;5.28;;
28587;SDS011;15787;49.662;10.162;2024-03-17T01:57:02;8.77;;;4.70;;
28587;SDS011;15787;49.662;10.162;2024-03-17T01:59:35;8.10;;;4.43;;
28587;SDS011;15787;49.662;10.162;2024-03-17T02:02:07;10.25;;;4.88;;
28587;SDS011;15787;49.662;10.162;2024-03-17T02:04:39;9.15;;;5.03;;
28587;SDS011;15787;49.662;10.162;2024-03-17T02:07:10;8.25;;;4.60;;
28587;SDS011;15787;49.662;10.162;2024-03-17T02:09:43;7.43;;;4.80;;
28587;SDS011;15787;49.662;10.162;2024-03-17T02:12:15;9.32;;;5.45;;
28587;SDS011;15787;49.662;10.162;2024-03-17T02:14:46;10.40;;;4.75;;
28587;SDS011;15787;49.662;10.162;2024-03-17T02:17:20;9.73;;;5.28;;
28587;SDS011;15787;49.662;10.162;2024-03-17T02:19:51;8.43;;;4.20;;
28587;SDS011;15787;49.662;10.162;2024-03-17T02:22:24;11.85;;;4.78;;
28587;SDS011;15787;49.662;10.162;2024-03-17T02:24:55;12.77;;;5.28;;
28587;SDS011;15787;49.662;10.162;2024-03-17T02:27:28;8.02;;;4.88;;
28587;SDS011;15787;49.662;10.162;2024-03-17T02:30:00;8.38;;;4.53;;
28587;SDS011;15787;49.662;10.162;2024-03-17T02:32:31;9.38;;;5.47;;
28587;SDS011;15787;49.662;10.162;2024-03-17T02:35:06;9.77;;;4.53;;
28587;SDS011;15787;49.662;10.162;2024-03-17T02:37:39;11.02;;;5.00;;
28587;SDS011;15787;49.662;10.162;2024-03-17T02:40:12;8.60;;;5.28;;
28587;SDS011;15787;49.662;10.162;2024-03-17T02:42:44;10.23;;;5.13;;
28587;SDS011;15787;49.662;10.162;2024-03-17T02:45:18;10.65;;;5.28;;
28587;SDS011;15787;49.662;10.162;2024-03-17T02:47:51;9.05;;;5.13;;
28587;SDS011;15787;49.662;10.162;2024-03-17T02:50:23;11.35;;;5.32;;
28587;SDS011;15787;49.662;10.162;2024-03-17T02:52:57;8.02;;;5.22;;
28587;SDS011;15787;49.662;10.162;2024-03-17T02:55:29;9.50;;;5.00;;
28587;SDS011;15787;49.662;10.162;2024-03-17T02:58:01;8.52;;;5.07;;
28587;SDS011;15787;49.662;10.162;2024-03-17T03:00:34;8.48;;;5.25;;
28587;SDS011;15787;49.662;10.162;2024-03-17T03:03:06;11.02;;;5.30;;
28587;SDS011;15787;49.662;10.162;2024-03-17T03:05:38;8.20;;;4.88;;
28587;SDS011;15787;49.662;10.162;2024-03-17T03:08:12;10.32;;;4.95;;
28587;SDS011;15787;49.662;10.162;2024-03-17T03:10:44;9.77;;;4.53;;
28587;SDS011;15787;49.662;10.162;2024-03-17T03:13:16;8.75;;;4.88;;
28587;SDS011;15787;49.662;10.162;2024-03-17T03:15:48;8.07;;;5.00;;
28587;SDS011;15787;49.662;10.162;2024-03-17T03:18:20;10.52;;;5.75;;
28587;SDS011;15787;49.662;10.162;2024-03-17T03:20:52;13.82;;;6.53;;
28587;SDS011;15787;49.662;10.162;2024-03-17T03:23:26;14.32;;;6.07;;
28587;SDS011;15787;49.662;10.162;2024-03-17T03:25:58;10.98;;;5.53;;
28587;SDS011;15787;49.662;10.162;2024-03-17T03:28:33;8.27;;;5.20;;
28587;SDS011;15787;49.662;10.162;2024-03-17T03:31:05;12.38;;;6.13;;
28587;SDS011;15787;49.662;10.162;2024-03-17T03:33:38;10.75;;;5.50;;
28587;SDS011;15787;49.662;10.162;2024-03-17T03:36:10;11.02;;;5.22;;
28587;SDS011;15787;49.662;10.162;2024-03-17T03:38:45;10.30;;;5.68;;
28587;SDS011;15787;49.662;10.162;2024-03-17T03:41:17;10.85;;;5.20;;
28587;SDS011;15787;49.662;10.162;2024-03-17T03:43:49;13.63;;;6.18;;
28587;SDS011;15787;49.662;10.162;2024-03-17T03:46:21;9.07;;;5.43;;
28587;SDS011;15787;49.662;10.162;2024-03-17T03:48:53;8.98;;;5.35;;
28587;SDS011;15787;49.662;10.162;2024-03-17T03:51:26;10.00;;;5.25;;
28587;SDS011;15787;49.662;10.162;2024-03-17T03:53:59;11.85;;;5.78;;
28587;SDS011;15787;49.662;10.162;2024-03-17T03:56:36;9.60;;;5.07;;
28587;SDS011;15787;49.662;10.162;2024-03-17T03:59:08;10.20;;;5.30;;
28587;SDS011;15787;49.662;10.162;2024-03-17T04:01:40;8.77;;;5.00;;
28587;SDS011;15787;49.662;10.162;2024-03-17T04:04:13;8.75;;;5.18;;
28587;SDS011;15787;49.662;10.162;2024-03-17T04:06:45;12.30;;;6.22;;
28587;SDS011;15787;49.662;10.162;2024-03-17T04:09:18;9.57;;;5.63;;
28587;SDS011;15787;49.662;10.162;2024-03-17T04:11:50;11.90;;;6.38;;
28587;SDS011;15787;49.662;10.162;2024-03-17T04:14:23;10.73;;;5.45;;
28587;SDS011;15787;49.662;10.162;2024-03-17T04:16:55;9.70;;;5.05;;
28587;SDS011;15787;49.662;10.162;2024-03-17T04:19:27;11.13;;;5.82;;
28587;SDS011;15787;49.662;10.162;2024-03-17T04:21:59;11.02;;;5.78;;
28587;SDS011;15787;49.662;10.162;2024-03-17T04:24:32;10.75;;;6.35;;
28587;SDS011;15787;49.662;10.162;2024-03-17T04:27:05;11.02;;;6.32;;
28587;SDS011;15787;49.662;10.162;2024-03-17T04:29:37;13.05;;;6.65;;
28587;SDS011;15787;49.662;10.162;2024-03-17T04:32:09;13.05;;;5.78;;
28587;SDS011;15787;49.662;10.162;2024-03-17T04:34:41;11.68;;;5.93;;
28587;SDS011;15787;49.662;10.162;2024-03-17T04:37:14;11.40;;;6.05;;
28587;SDS011;15787;49.662;10.162;2024-03-17T04:39:48;10.02;;;5.20;;
28587;SDS011;15787;49.662;10.162;2024-03-17T04:42:21;8.93;;;5.22;;
28587;SDS011;15787;49.662;10.162;2024-03-17T04:44:53;11.00;;;5.70;;
28587;SDS011;15787;49.662;10.162;2024-03-17T04:47:25;10.45;;;5.35;;
28587;SDS011;15787;49.662;10.162;2024-03-17T04:49:57;9.00;;;5.22;;
28587;SDS011;15787;49.662;10.162;2024-03-17T04:52:29;8.10;;;4.75;;
28587;SDS011;15787;49.662;10.162;2024-03-17T04:55:02;10.27;;;5.50;;
28587;SDS011;15787;49.662;10.162;2024-03-17T04:57:35;10.15;;;5.53;;
28587;SDS011;15787;49.662;10.162;2024-03-17T05:00:07;10.93;;;5.43;;
28587;SDS011;15787;49.662;10.162;2024-03-17T05:02:42;10.50;;;5.53;;
28587;SDS011;15787;49.662;10.162;2024-03-17T05:05:14;11.57;;;5.88;;
28587;SDS011;15787;49.662;10.162;2024-03-17T05:07:46;10.50;;;6.13;;
28587;SDS011;15787;49.662;10.162;2024-03-17T05:10:19;9.55;;;5.88;;
28587;SDS011;15787;49.662;10.162;2024-03-17T05:12:51;10.80;;;5.65;;
28587;SDS011;15787;49.662;10.162;2024-03-17T05:15:24;9.35;;;5.47;;
28587;SDS011;15787;49.662;10.162;2024-03-17T05:17:55;8.70;;;5.50;;
28587;SDS011;15787;49.662;10.162;2024-03-17T05:20:27;10.00;;;5.35;;
28587;SDS011;15787;49.662;10.162;2024-03-17T05:22:59;9.30;;;5.75;;
28587;SDS011;15787;49.662;10.162;2024-03-17T05:25:33;13.02;;;5.90;;
28587;SDS011;15787;49.662;10.162;2024-03-17T05:28:07;10.50;;;5.40;;
28587;SDS011;15787;49.662;10.162;2024-03-17T05:30:39;11.13;;;5.72;;
28587;SDS011;15787;49.662;10.162;2024-03-17T05:33:11;11.77;;;6.35;;
28587;SDS011;15787;49.662;10.162;2024-03-17T05:35:47;10.27;;;6.00;;
28587;SDS011;15787;49.662;10.162;2024-03-17T05:38:21;12.30;;;6.20;;
28587;SDS011;15787;49.662;10.162;2024-03-17T05:40:56;12.98;;;6.32;;
28587;SDS011;15787;49.662;10.162;2024-03-17T05:43:31;11.40;;;6.07;;
28587;SDS011;15787;49.662;10.162;2024-03-17T05:46:07;12.38;;;6.65;;
28587;SDS011;15787;49.662;10.162;2024-03-17T05:48:40;10.95;;;7.13;;
28587;SDS011;15787;49.662;10.162;2024-03-17T05:51:12;9.85;;;6.88;;
28587;SDS011;15787;49.662;10.162;2024-03-17T05:53:47;9.50;;;5.95;;
28587;SDS011;15787;49.662;10.162;2024-03-17T05:56:20;10.20;;;5.55;;
28587;SDS011;15787;49.662;10.162;2024-03-17T05:58:53;14.82;;;6.13;;
28587;SDS011;15787;49.662;10.162;2024-03-17T06:01:25;10.10;;;5.65;;
28587;SDS011;15787;49.662;10.162;2024-03-17T06:03:58;13.73;;;6.00;;
28587;SDS011;15787;49.662;10.162;2024-03-17T06:06:30;10.75;;;5.60;;
28587;SDS011;15787;49.662;10.162;2024-03-17T06:09:03;10.50;;;5.53;;
28587;SDS011;15787;49.662;10.162;2024-03-17T06:11:40;9.60;;;5.13;;
28587;SDS011;15787;49.662;10.162;2024-03-17T06:14:13;8.98;;;4.78;;
28587;SDS011;15787;49.662;10.162;2024-03-17T06:16:45;9.45;;;4.78;;
28587;SDS011;15787;49.662;10.162;2024-03-17T06:19:18;8.88;;;4.90;;
28587;SDS011;15787;49.662;10.162;2024-03-17T06:21:50;8.65;;;4.88;;
28587;SDS011;15787;49.662;10.162;2024-03-17T06:24:22;11.18;;;5.88;;
28587;SDS011;15787;49.662;10.162;2024-03-17T06:26:56;9.13;;;5.07;;
28587;SDS011;15787;49.662;10.162;2024-03-17T06:29:28;8.95;;;5.60;;
28587;SDS011;15787;49.662;10.162;2024-03-17T06:32:01;9.65;;;5.05;;
28587;SDS011;15787;49.662;10.162;2024-03-17T06:34:34;9.73;;;4.97;;
28587;SDS011;15787;49.662;10.162;2024-03-17T06:37:07;9.10;;;5.45;;
28587;SDS011;15787;49.662;10.162;2024-03-17T06:39:39;13.50;;;6.47;;
28587;SDS011;15787;49.662;10.162;2024-03-17T06:42:12;10.88;;;6.28;;
28587;SDS011;15787;49.662;10.162;2024-03-17T06:44:44;13.23;;;6.85;;
28587;SDS011;15787;49.662;10.162;2024-03-17T06:47:17;12.13;;;6.32;;
28587;SDS011;15787;49.662;10.162;2024-03-17T06:49:49;8.75;;;5.85;;
28587;SDS011;15787;49.662;10.162;2024-03-17T06:52:21;9.95;;;5.50;;
28587;SDS011;15787;49.662;10.162;2024-03-17T06:54:54;11.85;;;6.00;;
28587;SDS011;15787;49.662;10.162;2024-03-17T06:57:27;9.93;;;5.95;;
28587;SDS011;15787;49.662;10.162;2024-03-17T07:00:00;11.25;;;6.20;;
28587;SDS011;15787;49.662;10.162;2024-03-17T07:02:32;12.32;;;6.85;;
28587;SDS011;15787;49.662;10.162;2024-03-17T07:05:05;16.95;;;6.40;;
28587;SDS011;15787;49.662;10.162;2024-03-17T07:07:37;9.80;;;6.00;;
28587;SDS011;15787;49.662;10.162;2024-03-17T07:10:10;11.10;;;6.50;;
28587;SDS011;15787;49.662;10.162;2024-03-17T07:12:45;10.43;;;6.47;;
28587;SDS011;15787;49.662;10.162;2024-03-17T07:15:17;13.18;;;7.05;;
28587;SDS011;15787;49.662;10.162;2024-03-17T07:17:49;12.52;;;6.25;;
28587;SDS011;15787;49.662;10.162;2024-03-17T07:20:21;14.65;;;6.68;;
28587;SDS011;15787;49.662;10.162;2024-03-17T07:22:53;11.77;;;6.47;;
28587;SDS011;15787;49.662;10.162;2024-03-17T07:25:26;12.68;;;6.72;;
28587;SDS011;15787;49.662;10.162;2024-03-17T07:27:59;11.25;;;6.93;;
28587;SDS011;15787;49.662;10.162;2024-03-17T07:30:31;13.77;;;6.72;;
28587;SDS011;15787;49.662;10.162;2024-03-17T07:33:04;11.15;;;6.90;;
28587;SDS011;15787;49.662;10.162;2024-03-17T07:35:36;12.25;;;7.00;;
28587;SDS011;15787;49.662;10.162;2024-03-17T07:38:08;10.82;;;6.30;;
28587;SDS011;15787;49.662;10.162;2024-03-17T07:40:41;10.68;;;6.50;;
28587;SDS011;15787;49.662;10.162;2024-03-17T07:43:14;10.82;;;5.85;;
28587;SDS011;15787;49.662;10.162;2024-03-17T07:45:47;14.55;;;7.40;;
28587;SDS011;15787;49.662;10.162;2024-03-17T07:48:19;12.52;;;7.25;;
28587;SDS011;15787;49.662;10.162;2024-03-17T07:50:54;11.20;;;6.70;;
28587;SDS011;15787;49.662;10.162;2024-03-17T07:53:26;12.23;;;6.78;;
28587;SDS011;15787;49.662;10.162;2024-03-17T07:55:59;12.57;;;7.25;;
28587;SDS011;15787;49.662;10.162;2024-03-17T07:58:33;11.00;;;7.32;;
28587;SDS011;15787;49.662;10.162;2024-03-17T08:01:06;18.30;;;7.10;;
28587;SDS011;15787;49.662;10.162;2024-03-17T08:03:41;13.82;;;7.25;;
28587;SDS011;15787;49.662;10.162;2024-03-17T08:06:14;13.93;;;7.95;;
28587;SDS011;15787;49.662;10.162;2024-03-17T08:08:47;14.00;;;6.72;;
28587;SDS011;15787;49.662;10.162;2024-03-17T08:11:19;11.38;;;6.55;;
28587;SDS011;15787;49.662;10.162;2024-03-17T08:13:53;11.43;;;6.53;;
28587;SDS011;15787;49.662;10.162;2024-03-17T08:16:26;9.55;;;6.10;;
28587;SDS011;15787;49.662;10.162;2024-03-17T08:18:59;13.10;;;6.65;;
28587;SDS011;15787;49.662;10.162;2024-03-17T08:21:32;13.13;;;5.90;;
28587;SDS011;15787;49.662;10.162;2024-03-17T08:24:04;10.90;;;6.53;;
28587;SDS011;15787;49.662;10.162;2024-03-17T08:26:38;12.40;;;6.53;;
28587;SDS011;15787;49.662;10.162;2024-03-17T08:29:13;11.02;;;6.63;;
28587;SDS011;15787;49.662;10.162;2024-03-17T08:31:45;9.07;;;5.53;;
28587;SDS011;15787;49.662;10.162;2024-03-17T08:34:17;10.00;;;5.97;;
28587;SDS011;15787;49.662;10.162;2024-03-17T08:36:49;9.57;;;5.47;;
28587;SDS011;15787;49.662;10.162;2024-03-17T08:39:22;10.52;;;5.72;;
28587;SDS011;15787;49.662;10.162;2024-03-17T08:41:54;10.48;;;5.45;;
28587;SDS011;15787;49.662;10.162;2024-03-17T08:44:28;10.05;;;5.05;;
28587;SDS011;15787;49.662;10.162;2024-03-17T08:47:00;10.40;;;5.30;;
28587;SDS011;15787;49.662;10.162;2024-03-17T08:49:32;8.00;;;4.85;;
28587;SDS011;15787;49.662;10.162;2024-03-17T08:52:04;8.50;;;5.35;;
28587;SDS011;15787;49.662;10.162;2024-03-17T08:54:36;9.30;;;5.07;;
28587;SDS011;15787;49.662;10.162;2024-03-17T08:57:08;8.57;;;5.55;;
28587;SDS011;15787;49.662;10.162;2024-03-17T08:59:42;10.35;;;6.47;;
28587;SDS011;15787;49.662;10.162;2024-03-17T09:02:18;10.45;;;6.50;;
28587;SDS011;15787;49.662;10.162;2024-03-17T09:04:51;9.73;;;5.93;;
28587;SDS011;15787;49.662;10.162;2024-03-17T09:07:23;8.55;;;5.68;;
28587;SDS011;15787;49.662;10.162;2024-03-17T09:09:55;10.40;;;6.10;;
28587;SDS011;15787;49.662;10.162;2024-03-17T09:12:27;8.20;;;5.10;;
28587;SDS011;15787;49.662;10.162;2024-03-17T09:15:01;9.43;;;5.85;;
28587;SDS011;15787;49.662;10.162;2024-03-17T09:17:33;12.23;;;5.43;;
28587;SDS011;15787;49.662;10.162;2024-03-17T09:20:05;7.78;;;5.45;;
28587;SDS011;15787;49.662;10.162;2024-03-17T09:22:42;9.25;;;5.20;;
28587;SDS011;15787;49.662;10.162;2024-03-17T09:25:14;10.35;;;5.72;;
28587;SDS011;15787;49.662;10.162;2024-03-17T09:27:47;8.25;;;4.93;;
28587;SDS011;15787;49.662;10.162;2024-03-17T09:30:20;8.32;;;5.30;;
28587;SDS011;15787;49.662;10.162;2024-03-17T09:32:54;7.38;;;5.20;;
28587;SDS011;15787;49.662;10.162;2024-03-17T09:35:26;9.45;;;6.05;;
28587;SDS011;15787;49.662;10.162;2024-03-17T09:37:58;9.95;;;5.38;;
28587;SDS011;15787;49.662;10.162;2024-03-17T09:40:30;9.50;;;5.88;;
28587;SDS011;15787;49.662;10.162;2024-03-17T09:43:02;9.25;;;5.20;;
28587;SDS011;15787;49.662;10.162;2024-03-17T09:45:37;8.32;;;5.07;;
28587;SDS011;15787;49.662;10.162;2024-03-17T09:48:13;10.60;;;5.63;;
28587;SDS011;15787;49.662;10.162;2024-03-17T09:50:50;8.18;;;5.70;;
28587;SDS011;15787;49.662;10.162;2024-03-17T09:53:26;10.45;;;5.45;;
28587;SDS011;15787;49.662;10.162;2024-03-17T09:55:59;8.98;;;5.03;;
28587;SDS011;15787;49.662;10.162;2024-03-17T09:58:35;7.15;;;4.82;;
28587;SDS011;15787;49.662;10.162;2024-03-17T10:01:09;10.13;;;4.90;;
28587;SDS011;15787;49.662;10.162;2024-03-17T10:03:43;6.78;;;3.88;;
28587;SDS011;15787;49.662;10.162;2024-03-17T10:06:17;7.35;;;4.60;;
28587;SDS011;15787;49.662;10.162;2024-03-17T10:08:50;6.70;;;4.35;;
28587;SDS011;15787;49.662;10.162;2024-03-17T10:11:24;9.30;;;4.65;;
28587;SDS011;15787;49.662;10.162;2024-03-17T10:14:01;6.60;;;4.38;;
28587;SDS011;15787;49.662;10.162;2024-03-17T10:16:35;7.90;;;4.70;;
28587;SDS011;15787;49.662;10.162;2024-03-17T10:19:09;8.23;;;4.60;;
28587;SDS011;15787;49.662;10.162;2024-03-17T10:21:45;7.25;;;4.95;;
28587;SDS011;15787;49.662;10.162;2024-03-17T10:24:20;7.60;;;4.15;;
28587;SDS011;15787;49.662;10.162;2024-03-17T10:26:53;7.95;;;4.05;;
28587;SDS011;15787;49.662;10.162;2024-03-17T10:29:27;5.63;;;3.30;;
28587;SDS011;15787;49.662;10.162;2024-03-17T10:32:03;6.15;;;3.38;;
28587;SDS011;15787;49.662;10.162;2024-03-17T10:34:37;5.40;;;3.10;;
28587;SDS011;15787;49.662;10.162;2024-03-17T10:37:10;5.80;;;3.30;;
28587;SDS011;15787;49.662;10.162;2024-03-17T10:39:45;6.03;;;3.40;;
28587;SDS011;15787;49.662;10.162;2024-03-17T10:42:20;6.97;;;3.40;;
28587;SDS011;15787;49.662;10.162;2024-03-17T10:44:56;5.68;;;3.30;;
28587;SDS011;15787;49.662;10.162;2024-03-17T10:47:31;5.97;;;3.55;;
28587;SDS011;15787;49.662;10.162;2024-03-17T10:50:07;7.13;;;3.65;;
28587;SDS011;15787;49.662;10.162;2024-03-17T10:52:48;8.68;;;4.55;;
28587;SDS011;15787;49.662;10.162;2024-03-17T10:55:25;7.10;;;4.07;;
28587;SDS011;15787;49.662;10.162;2024-03-17T10:57:58;7.55;;;4.13;;
28587;SDS011;15787;49.662;10.162;2024-03-17T11:00:35;8.48;;;4.60;;
28587;SDS011;15787;49.662;10.162;2024-03-17T11:03:10;7.72;;;4.22;;
28587;SDS011;15787;49.662;10.162;2024-03-17T11:05:43;7.25;;;4.43;;
28587;SDS011;15787;49.662;10.162;2024-03-17T11:08:16;7.78;;;4.35;;
28587;SDS011;15787;49.662;10.162;2024-03-17T11:10:51;9.35;;;4.30;;
28587;SDS011;15787;49.662;10.162;2024-03-17T11:13:26;8.43;;;4.22;;
28587;SDS011;15787;49.662;10.162;2024-03-17T11:15:59;6.43;;;3.63;;
28587;SDS011;15787;49.662;10.162;2024-03-17T11:18:36;6.95;;;4.18;;
28587;SDS011;15787;49.662;10.162;2024-03-17T11:21:19;7.50;;;4.47;;
28587;SDS011;15787;49.662;10.162;2024-03-17T11:23:56;6.57;;;3.97;;
28587;SDS011;15787;49.662;10.162;2024-03-17T11:26:32;5.63;;;3.92;;
28587;SDS011;15787;49.662;10.162;2024-03-17T11:29:05;6.18;;;3.83;;
28587;SDS011;15787;49.662;10.162;2024-03-17T11:31:39;6.35;;;4.20;;
28587;SDS011;15787;49.662;10.162;2024-03-17T11:37:10;7.68;;;5.07;;
28587;SDS011;15787;49.662;10.162;2024-03-17T11:40:23;8.73;;;3.95;;
28587;SDS011;15787;49.662;10.162;2024-03-17T11:43:01;9.85;;;5.15;;
28587;SDS011;15787;49.662;10.162;2024-03-17T11:45:36;6.57;;;4.10;;
28587;SDS011;15787;49.662;10.162;2024-03-17T11:48:09;7.78;;;4.20;;
28587;SDS011;15787;49.662;10.162;2024-03-17T11:50:47;8.00;;;4.45;;
28587;SDS011;15787;49.662;10.162;2024-03-17T11:53:18;7.80;;;4.70;;
28587;SDS011;15787;49.662;10.162;2024-03-17T11:55:50;6.57;;;4.25;;
28587;SDS011;15787;49.662;10.162;2024-03-17T11:58:23;7.13;;;3.70;;
28587;SDS011;15787;49.662;10.162;2024-03-17T12:00:54;6.25;;;4.35;;
28587;SDS011;15787;49.662;10.162;2024-03-17T12:03:29;6.60;;;3.70;;
28587;SDS011;15787;49.662;10.162;2024-03-17T12:06:01;6.13;;;3.60;;
28587;SDS011;15787;49.662;10.162;2024-03-17T12:08:35;5.85;;;3.35;;
28587;SDS011;15787;49.662;10.162;2024-03-17T12:11:14;6.18;;;3.65;;
28587;SDS011;15787;49.662;10.162;2024-03-17T12:13:49;7.28;;;3.65;;
28587;SDS011;15787;49.662;10.162;2024-03-17T12:16:20;7.25;;;3.78;;
28587;SDS011;15787;49.662;10.162;2024-03-17T12:18:52;7.45;;;3.90;;
28587;SDS011;15787;49.662;10.162;2024-03-17T12:21:24;7.05;;;4.28;;
28587;SDS011;15787;49.662;10.162;2024-03-17T12:23:57;8.25;;;3.70;;
28587;SDS011;15787;49.662;10.162;2024-03-17T12:26:29;8.63;;;4.43;;
28587;SDS011;15787;49.662;10.162;2024-03-17T12:29:02;8.02;;;4.60;;
28587;SDS011;15787;49.662;10.162;2024-03-17T12:31:34;11.05;;;4.35;;
28587;SDS011;15787;49.662;10.162;2024-03-17T12:34:06;9.25;;;4.32;;
28587;SDS011;15787;49.662;10.162;2024-03-17T12:36:39;7.60;;;4.68;;
28587;SDS011;15787;49.662;10.162;2024-03-17T12:39:15;5.28;;;3.60;;
28587;SDS011;15787;49.662;10.162;2024-03-17T12:42:00;7.95;;;4.18;;
28587;SDS011;15787;49.662;10.162;2024-03-17T12:44:34;8.38;;;4.70;;
28587;SDS011;15787;49.662;10.162;2024-03-17T12:47:07;9.27;;;4.72;;
28587;SDS011;15787;49.662;10.162;2024-03-17T12:49:44;6.00;;;3.75;;
28587;SDS011;15787;49.662;10.162;2024-03-17T12:52:18;8.20;;;4.40;;
28587;SDS011;15787;49.662;10.162;2024-03-17T12:54:58;8.27;;;4.20;;
28587;SDS011;15787;49.662;10.162;2024-03-17T12:57:46;7.40;;;4.72;;
28587;SDS011;15787;49.662;10.162;2024-03-17T13:00:36;9.23;;;4.47;;
28587;SDS011;15787;49.662;10.162;2024-03-17T13:03:09;7.47;;;4.32;;
28587;SDS011;15787;49.662;10.162;2024-03-17T13:05:53;5.75;;;3.85;;
28587;SDS011;15787;49.662;10.162;2024-03-17T13:08:26;7.72;;;4.57;;
28587;SDS011;15787;49.662;10.162;2024-03-17T13:10:58;8.40;;;4.38;;
28587;SDS011;15787;49.662;10.162;2024-03-17T13:13:30;9.15;;;4.50;;
28587;SDS011;15787;49.662;10.162;2024-03-17T13:16:05;6.15;;;4.43;;
28587;SDS011;15787;49.662;10.162;2024-03-17T13:18:39;7.72;;;4.45;;
28587;SDS011;15787;49.662;10.162;2024-03-17T13:21:12;7.38;;;4.28;;
28587;SDS011;15787;49.662;10.162;2024-03-17T13:23:45;6.95;;;4.47;;
28587;SDS011;15787;49.662;10.162;2024-03-17T13:26:17;10.40;;;4.38;;
28587;SDS011;15787;49.662;10.162;2024-03-17T13:28:50;7.82;;;4.15;;
28587;SDS011;15787;49.662;10.162;2024-03-17T13:31:22;10.40;;;4.40;;
28587;SDS011;15787;49.662;10.162;2024-03-17T13:33:54;6.97;;;4.40;;
28587;SDS011;15787;49.662;10.162;2024-03-17T13:36:26;7.55;;;4.15;;
28587;SDS011;15787;49.662;10.162;2024-03-17T13:39:00;6.07;;;4.13;;
28587;SDS011;15787;49.662;10.162;2024-03-17T13:41:32;6.38;;;3.88;;
28587;SDS011;15787;49.662;10.162;2024-03-17T13:44:04;7.93;;;4.75;;
28587;SDS011;15787;49.662;10.162;2024-03-17T13:46:37;7.15;;;4.40;;
28587;SDS011;15787;49.662;10.162;2024-03-17T13:49:09;7.05;;;3.65;;
28587;SDS011;15787;49.662;10.162;2024-03-17T13:51:41;6.55;;;4.70;;
28587;SDS011;15787;49.662;10.162;2024-03-17T13:54:14;6.63;;;4.28;;
28587;SDS011;15787;49.662;10.162;2024-03-17T13:56:47;5.38;;;3.60;;
28587;SDS011;15787;49.662;10.162;2024-03-17T13:59:19;5.20;;;3.95;;
28587;SDS011;15787;49.662;10.162;2024-03-17T14:01:53;12.13;;;4.07;;
28587;SDS011;15787;49.662;10.162;2024-03-17T14:04:25;10.32;;;5.00;;
28587;SDS011;15787;49.662;10.162;2024-03-17T14:06:57;7.07;;;4.15;;
28587;SDS011;15787;49.662;10.162;2024-03-17T14:09:30;7.22;;;3.97;;
28587;SDS011;15787;49.662;10.162;2024-03-17T14:12:02;6.70;;;4.82;;
28587;SDS011;15787;49.662;10.162;2024-03-17T14:14:34;8.98;;;4.65;;
28587;SDS011;15787;49.662;10.162;2024-03-17T14:17:06;8.77;;;4.47;;
28587;SDS011;15787;49.662;10.162;2024-03-17T14:19:39;7.95;;;4.93;;
28587;SDS011;15787;49.662;10.162;2024-03-17T14:22:11;6.63;;;4.50;;
28587;SDS011;15787;49.662;10.162;2024-03-17T14:24:44;8.02;;;4.43;;
28587;SDS011;15787;49.662;10.162;2024-03-17T14:27:16;7.30;;;4.43;;
28587;SDS011;15787;49.662;10.162;2024-03-17T14:29:49;7.93;;;4.90;;
28587;SDS011;15787;49.662;10.162;2024-03-17T14:32:23;8.68;;;4.72;;
28587;SDS011;15787;49.662;10.162;2024-03-17T14:34:54;9.32;;;4.53;;
28587;SDS011;15787;49.662;10.162;2024-03-17T14:37:26;7.68;;;4.55;;
28587;SDS011;15787;49.662;10.162;2024-03-17T14:40:00;8.82;;;4.97;;
28587;SDS011;15787;49.662;10.162;2024-03-17T14:42:37;8.82;;;5.13;;
28587;SDS011;15787;49.662;10.162;2024-03-17T14:45:10;12.15;;;5.38;;
28587;SDS011;15787;49.662;10.162;2024-03-17T14:47:43;7.32;;;4.55;;
28587;SDS011;15787;49.662;10.162;2024-03-17T14:50:15;10.15;;;5.55;;
28587;SDS011;15787;49.662;10.162;2024-03-17T14:52:49;8.13;;;5.78;;
28587;SDS011;15787;49.662;10.162;2024-03-17T14:55:23;9.13;;;4.97;;
28587;SDS011;15787;49.662;10.162;2024-03-17T14:57:55;9.05;;;5.10;;
28587;SDS011;15787;49.662;10.162;2024-03-17T15:00:27;7.97;;;4.78;;
28587;SDS011;15787;49.662;10.162;2024-03-17T15:03:02;9.95;;;5.22;;
28587;SDS011;15787;49.662;10.162;2024-03-17T15:05:36;6.90;;;4.90;;
28587;SDS011;15787;49.662;10.162;2024-03-17T15:08:08;7.32;;;4.43;;